Castalia, NC (27816)

8:09 AM EDT on September 03, 2015 (GMT -0400)
Rich Farms Inc | | Change Station
CLOSE
Current Station
Personal Weather Station
Location: Castalia, NC
Elevation: 282 ft
Nearby Weather Stations

Elev 282 ft 36.06 °N, 78.09 °W | Updated 9 minutes ago

Overcast
Overcast
69.5 °F
Feels Like 69.5 °F
N
3.0
Wind Variable Wind from WNW
Gusts 3.0 mph

Today
High -- | Low -- °F
--% Chance of Precip.
Yesterday
High -- | Low -- °F
Precip. -- in
6:45 AM 7:37 PM
Waning Gibbous, 71% visible
Pressure 29.99 in
Visibility 0.8 miles
Clouds Overcast 200 ft
Dew Point 69 °F
Humidity 98%
Rainfall 0.00 in
Snow Depth Not available.
UV 0 out of 12
Pollen 8.40 out of 12
Air Quality Not available.
Flu Activity Not available.
METAR KLHZ 031155Z AUTO 00000KT 3/4SM BR OVC002 19/19 A2999 RMK AO2
Pressure 29.99 in
Visibility 0.8 miles
Clouds Overcast 200 ft
Dew Point 69 °F
Humidity 98%
Rainfall 0.00 in
Snow Depth Not available.
UV 0 out of 12
Pollen 8.40 out of 12
Air Quality Not available.
Flu Activity Not available.
METAR KLHZ 031155Z AUTO 00000KT 3/4SM BR OVC002 19/19 A2999 RMK AO2

10-Day Weather Forecast

×

Almanac

Astronomy

Sep. 03, 2015 Rise Set
Actual Time
Civil Twilight
Nautical Twilight
Astronomical Twilight
Moon
Length of Visible Light
Length of Day
Tomorrow will be .
, % of the Moon is Illuminated

Today's Extremes

State Highs State Lows

Community

WunderPhotos

Upload Photos

1,851,941 photos uploaded!

WunderBlogs® & News

Nearby

Air Quality

  Air Quality AQ Index Pollutant
Not available.

Snow Depth

Station Depth Elevation

Earthquake Activity

City Distance Mag. Time & Date
Minimum magnitude displayed is 2.5.

Coastal Water Temperatures

Place Temperature

Stations

Nearby Weather Stations

Station Location Temp. Windchill Dew Point Humidity Wind Precip. Elev Updated Type